createdAt,value
2018-07-04T00:02:21.740Z,21.80
2018-07-04T00:05:00.823Z,21.72
2018-07-04T00:07:39.991Z,21.77
2018-07-04T00:10:18.867Z,21.82
2018-07-04T00:12:57.891Z,21.92
2018-07-04T00:15:36.832Z,21.89
2018-07-04T00:18:15.961Z,21.79
2018-07-04T00:20:55.027Z,21.72
2018-07-04T00:23:34.205Z,21.78
2018-07-04T00:26:13.436Z,21.84
2018-07-04T00:28:52.486Z,21.93
2018-07-04T00:31:31.439Z,21.82
2018-07-04T00:34:10.394Z,21.77
2018-07-04T00:36:49.471Z,21.76
2018-07-04T00:39:28.435Z,21.79
2018-07-04T00:42:07.450Z,21.80
2018-07-04T00:44:46.427Z,21.83
2018-07-04T00:47:25.444Z,21.93
2018-07-04T00:50:04.479Z,22.03
2018-07-04T00:52:43.551Z,22.16
2018-07-04T00:55:22.530Z,22.13
2018-07-04T00:58:01.459Z,22.02
2018-07-04T01:00:40.375Z,21.93
2018-07-04T01:03:19.601Z,21.88
2018-07-04T01:05:58.897Z,21.76
2018-07-04T01:08:37.991Z,21.54
2018-07-04T01:11:17.072Z,21.59
2018-07-04T01:13:55.937Z,21.69
2018-07-04T01:16:34.882Z,21.64
2018-07-04T01:19:13.930Z,21.73
2018-07-04T01:21:53.173Z,21.79
2018-07-04T01:24:32.101Z,21.89
2018-07-04T01:27:11.083Z,21.90
2018-07-04T01:29:49.962Z,21.93
2018-07-04T01:32:29.283Z,21.99
2018-07-04T01:35:08.389Z,22.03
2018-07-04T01:37:47.755Z,21.97
2018-07-04T01:40:26.686Z,21.80
2018-07-04T01:43:05.884Z,21.64
2018-07-04T01:45:44.893Z,21.61
2018-07-04T01:48:23.916Z,21.70
2018-07-04T01:51:02.824Z,21.75
2018-07-04T01:53:42.341Z,21.72
2018-07-04T01:56:21.535Z,21.75
2018-07-04T01:59:00.796Z,21.70
2018-07-04T02:01:39.882Z,21.63
2018-07-04T02:04:19.283Z,21.67
2018-07-04T02:06:58.250Z,21.55
2018-07-04T02:09:37.258Z,21.56
2018-07-04T02:12:16.174Z,21.38
2018-07-04T02:14:55.090Z,21.43
2018-07-04T02:17:34.253Z,21.47
2018-07-04T02:20:13.521Z,21.40
2018-07-04T02:22:52.632Z,21.36
2018-07-04T02:25:31.621Z,21.52
2018-07-04T02:28:10.680Z,21.46
2018-07-04T02:30:50.212Z,21.45
2018-07-04T02:33:29.200Z,21.41
2018-07-04T02:36:08.315Z,21.46
2018-07-04T02:38:47.222Z,21.37
2018-07-04T02:41:26.589Z,21.49
2018-07-04T02:44:05.685Z,21.46
2018-07-04T02:46:44.781Z,21.39
2018-07-04T02:49:23.938Z,21.38
2018-07-04T02:52:03.114Z,21.40
2018-07-04T02:54:42.113Z,21.29
2018-07-04T02:57:21.216Z,21.27
2018-07-04T03:00:00.284Z,21.30
2018-07-04T03:02:39.759Z,21.28
2018-07-04T03:05:18.816Z,21.16
2018-07-04T03:07:57.720Z,21.15
2018-07-04T03:10:36.734Z,21.10
2018-07-04T03:13:15.811Z,21.05
2018-07-04T03:15:54.758Z,21.14
2018-07-04T03:18:34.130Z,21.16
2018-07-04T03:21:13.192Z,21.17
2018-07-04T03:23:52.131Z,21.26
2018-07-04T03:26:31.143Z,21.29
2018-07-04T03:29:10.409Z,21.34
2018-07-04T03:31:49.438Z,21.41
2018-07-04T03:34:28.425Z,21.34
2018-07-04T03:37:07.665Z,21.31
2018-07-04T03:39:46.638Z,21.16
2018-07-04T03:42:25.684Z,21.16
2018-07-04T03:45:04.639Z,21.05
2018-07-04T03:47:43.727Z,20.97
2018-07-04T03:50:23.093Z,20.96
2018-07-04T03:53:02.197Z,21.07
2018-07-04T03:55:41.279Z,21.19
2018-07-04T03:58:20.496Z,21.29
2018-07-04T04:00:59.754Z,21.26
2018-07-04T04:03:38.854Z,21.22
2018-07-04T04:06:17.895Z,21.29
2018-07-04T04:08:57.034Z,21.35
2018-07-04T04:11:36.353Z,21.38
2018-07-04T04:14:15.461Z,21.34
2018-07-04T04:16:54.801Z,21.39
2018-07-04T04:19:34.473Z,21.49
2018-07-04T04:22:14.758Z,21.62
2018-07-04T04:24:53.640Z,21.54
2018-07-04T04:27:32.684Z,21.66
2018-07-04T04:30:11.746Z,21.69
2018-07-04T04:32:50.876Z,21.76
2018-07-04T04:35:30.588Z,21.83
2018-07-04T04:38:09.847Z,21.95
2018-07-04T04:40:48.924Z,21.97
2018-07-04T04:43:28.019Z,22.12
2018-07-04T04:46:07.175Z,22.31
2018-07-04T04:48:46.806Z,22.40
2018-07-04T04:51:25.771Z,22.58
2018-07-04T04:54:04.788Z,22.68
2018-07-04T04:56:43.667Z,22.59
2018-07-04T04:59:23.362Z,22.61
2018-07-04T05:02:03.482Z,22.78
2018-07-04T05:04:42.517Z,22.88
2018-07-04T05:07:21.675Z,22.93
2018-07-04T05:10:00.634Z,22.98
2018-07-04T05:12:39.535Z,23.15
2018-07-04T05:15:18.906Z,23.22
2018-07-04T05:17:57.830Z,23.37
2018-07-04T05:20:36.988Z,23.59
2018-07-04T05:23:15.930Z,23.63
2018-07-04T05:25:54.955Z,23.79
2018-07-04T05:28:33.922Z,23.79
2018-07-04T05:31:13.106Z,23.81
2018-07-04T05:33:52.100Z,23.92
2018-07-04T05:36:31.495Z,24.17
2018-07-04T05:39:10.584Z,24.36
2018-07-04T05:41:50.018Z,24.55
2018-07-04T05:44:29.166Z,24.52
2018-07-04T05:47:08.332Z,24.44
2018-07-04T05:49:47.426Z,24.56
2018-07-04T05:52:26.514Z,24.69
2018-07-04T05:55:05.524Z,24.91
2018-07-04T05:57:44.652Z,25.02
2018-07-04T06:00:23.804Z,25.15
2018-07-04T06:03:02.787Z,25.38
2018-07-04T06:05:41.809Z,25.56
2018-07-04T06:08:20.824Z,25.60
2018-07-04T06:10:59.906Z,25.63
2018-07-04T06:13:38.850Z,25.69
2018-07-04T06:16:18.050Z,25.84
2018-07-04T06:18:57.032Z,25.93
2018-07-04T06:21:36.111Z,26.01
2018-07-04T06:24:15.523Z,25.73
2018-07-04T06:26:54.713Z,25.84
2018-07-04T06:29:34.214Z,25.89
2018-07-04T06:32:13.321Z,25.82
2018-07-04T06:34:52.272Z,25.94
2018-07-04T06:37:31.262Z,25.99
2018-07-04T06:39:59.144Z,26.33
2018-07-04T06:42:25.774Z,26.57
2018-07-04T06:44:52.420Z,26.66
2018-07-04T06:47:19.020Z,26.63
2018-07-04T06:49:45.601Z,26.51
2018-07-04T06:52:12.309Z,26.42
2018-07-04T06:54:38.908Z,26.17
2018-07-04T06:57:05.543Z,26.06
2018-07-04T06:59:32.179Z,26.08
2018-07-04T07:02:12.372Z,26.18
2018-07-04T07:04:52.421Z,26.48
2018-07-04T07:07:31.814Z,26.72
2018-07-04T07:10:10.906Z,26.92
2018-07-04T07:12:50.057Z,26.98
2018-07-04T07:15:29.856Z,27.07
2018-07-04T07:18:09.195Z,27.04
2018-07-04T07:20:48.409Z,26.98
2018-07-04T07:23:27.577Z,26.95
2018-07-04T07:26:06.651Z,27.05
2018-07-04T07:28:45.695Z,27.11
2018-07-04T07:31:25.588Z,27.17
2018-07-04T07:34:05.375Z,27.29
2018-07-04T07:36:44.630Z,27.48
2018-07-04T07:39:24.189Z,27.70
2018-07-04T07:42:03.764Z,27.90
2018-07-04T07:44:42.677Z,27.94
2018-07-04T07:47:21.664Z,28.16
2018-07-04T07:50:00.752Z,28.38
2018-07-04T07:52:39.947Z,28.54
2018-07-04T07:55:19.088Z,28.65
2018-07-04T07:57:58.191Z,28.70
2018-07-04T08:00:37.359Z,28.67
2018-07-04T08:03:16.436Z,28.60
2018-07-04T08:05:55.783Z,28.47
2018-07-04T08:08:34.875Z,28.24
2018-07-04T08:11:14.413Z,27.81
2018-07-04T08:13:54.009Z,27.42
2018-07-04T08:16:33.143Z,26.99
2018-07-04T08:19:12.380Z,25.54
2018-07-04T08:21:51.395Z,24.01
2018-07-04T08:24:30.750Z,22.68
2018-07-04T08:27:10.013Z,21.47
2018-07-04T08:29:49.201Z,20.74
2018-07-04T08:32:28.248Z,19.93
2018-07-04T08:35:07.511Z,19.35
2018-07-04T08:37:47.840Z,19.09
2018-07-04T08:40:27.071Z,18.88
2018-07-04T08:43:06.027Z,18.72
2018-07-04T08:45:44.963Z,18.58
2018-07-04T08:48:24.015Z,18.54
2018-07-04T08:51:02.912Z,18.67
2018-07-04T08:53:41.956Z,18.73
2018-07-04T08:56:21.121Z,18.73
2018-07-04T08:59:00.041Z,18.69
2018-07-04T09:01:39.086Z,18.63
2018-07-04T09:04:18.188Z,18.52
2018-07-04T09:06:57.492Z,18.44
2018-07-04T09:09:36.362Z,18.33
2018-07-04T09:12:15.438Z,18.43
2018-07-04T09:14:54.469Z,18.61
2018-07-04T09:17:33.484Z,18.86
2018-07-04T09:20:12.382Z,18.76
2018-07-04T09:22:51.748Z,18.97
2018-07-04T09:25:30.925Z,18.98
2018-07-04T09:28:09.845Z,18.76
2018-07-04T09:30:48.984Z,18.79
2018-07-04T09:33:27.915Z,18.83
2018-07-04T09:36:07.094Z,18.91
2018-07-04T09:38:46.332Z,19.25
2018-07-04T09:41:25.412Z,19.56
2018-07-04T09:44:04.426Z,19.87
2018-07-04T09:46:43.719Z,19.84
2018-07-04T09:49:22.704Z,19.95
2018-07-04T09:52:02.122Z,20.14
2018-07-04T09:54:41.316Z,20.35
2018-07-04T09:57:20.356Z,20.24
2018-07-04T09:59:59.524Z,20.36
2018-07-04T10:02:38.689Z,20.62
2018-07-04T10:05:17.969Z,20.90
2018-07-04T10:07:56.917Z,21.05
2018-07-04T10:10:35.930Z,21.28
2018-07-04T10:13:14.917Z,21.57
2018-07-04T10:15:53.960Z,21.81
2018-07-04T10:18:33.697Z,22.09
2018-07-04T10:21:13.748Z,22.32
2018-07-04T10:23:52.866Z,22.60
2018-07-04T10:26:31.950Z,22.93
2018-07-04T10:29:10.930Z,23.41
2018-07-04T10:31:50.454Z,23.78
2018-07-04T10:34:29.544Z,24.17
2018-07-04T10:37:08.723Z,24.50
2018-07-04T10:39:48.265Z,24.90
2018-07-04T10:42:27.248Z,24.70
2018-07-04T10:45:06.360Z,24.15
2018-07-04T10:47:45.447Z,24.14
2018-07-04T10:50:24.508Z,24.31
2018-07-04T10:53:03.419Z,24.66
2018-07-04T10:55:42.448Z,24.94
2018-07-04T10:58:22.469Z,25.17
2018-07-04T11:01:01.528Z,25.30
2018-07-04T11:03:40.675Z,25.62
2018-07-04T11:06:19.981Z,25.88
2018-07-04T11:08:59.178Z,26.03
2018-07-04T11:11:38.481Z,26.27
2018-07-04T11:14:17.819Z,26.46
2018-07-04T11:16:57.100Z,26.58
2018-07-04T11:19:36.046Z,26.73
2018-07-04T11:22:15.042Z,26.98
2018-07-04T11:24:54.059Z,27.27
2018-07-04T11:27:32.969Z,27.26
2018-07-04T11:30:12.561Z,27.37
2018-07-04T11:32:52.337Z,27.50
2018-07-04T11:35:31.452Z,27.54
2018-07-04T11:38:10.590Z,27.65
2018-07-04T11:40:49.674Z,27.70
2018-07-04T11:43:28.866Z,27.78
2018-07-04T11:45:58.158Z,27.97
2018-07-04T11:48:24.920Z,27.89
2018-07-04T11:50:52.384Z,27.95
2018-07-04T11:53:19.063Z,28.11
2018-07-04T11:55:45.706Z,28.24
2018-07-04T11:58:13.073Z,28.18
2018-07-04T12:00:39.671Z,28.33
2018-07-04T12:03:13.818Z,28.45
2018-07-04T12:05:53.084Z,28.42
2018-07-04T12:08:20.020Z,28.56
2018-07-04T12:10:47.189Z,28.76
2018-07-04T12:13:13.955Z,28.95
2018-07-04T12:15:40.555Z,29.08
2018-07-04T12:18:11.049Z,29.20
2018-07-04T12:20:37.741Z,29.30
2018-07-04T12:23:04.393Z,29.28
2018-07-04T12:25:30.984Z,29.36
2018-07-04T12:27:57.618Z,29.52
2018-07-04T12:30:24.193Z,29.58
2018-07-04T12:32:50.930Z,29.52
2018-07-04T12:35:17.567Z,29.78
2018-07-04T12:37:44.274Z,30.47
2018-07-04T12:40:10.873Z,31.26
2018-07-04T12:42:37.488Z,31.76
2018-07-04T12:45:04.169Z,32.66
2018-07-04T12:47:30.964Z,33.08
2018-07-04T12:49:57.613Z,33.70
2018-07-04T12:52:24.288Z,33.95
2018-07-04T12:55:03.613Z,34.47
2018-07-04T12:57:42.513Z,34.63
2018-07-04T13:00:21.542Z,34.75
2018-07-04T13:03:00.650Z,34.99
2018-07-04T13:05:39.660Z,35.26
2018-07-04T13:08:18.794Z,35.10
2018-07-04T13:10:57.660Z,34.66
2018-07-04T13:13:36.954Z,34.59
2018-07-04T13:16:15.988Z,34.50
2018-07-04T13:18:55.854Z,34.77
2018-07-04T13:21:35.305Z,34.83
2018-07-04T13:24:14.742Z,35.08
2018-07-04T13:26:53.591Z,35.13
2018-07-04T13:29:33.239Z,34.98
2018-07-04T13:32:12.694Z,34.42
2018-07-04T13:34:52.336Z,34.19
2018-07-04T13:37:31.873Z,33.93
2018-07-04T13:40:11.364Z,34.11
2018-07-04T13:42:50.470Z,34.38
2018-07-04T13:45:29.569Z,34.46
2018-07-04T13:48:08.552Z,33.79
2018-07-04T13:50:47.887Z,32.98
2018-07-04T13:53:26.961Z,32.81
2018-07-04T13:56:06.354Z,32.84
2018-07-04T13:58:45.400Z,32.76
2018-07-04T14:01:24.431Z,32.59
2018-07-04T14:04:03.410Z,32.38
2018-07-04T14:06:42.831Z,32.03
2018-07-04T14:09:22.025Z,31.82
2018-07-04T14:12:01.178Z,31.86
2018-07-04T14:14:40.211Z,31.87
2018-07-04T14:17:19.279Z,32.05
2018-07-04T14:19:59.000Z,32.14
2018-07-04T14:22:38.359Z,32.27
2018-07-04T14:25:17.415Z,32.37
2018-07-04T14:27:56.554Z,32.32
2018-07-04T14:30:35.652Z,32.19
2018-07-04T14:33:14.891Z,31.89
2018-07-04T14:35:53.948Z,31.56
2018-07-04T14:38:32.961Z,31.19
2018-07-04T14:41:12.149Z,31.08
2018-07-04T14:43:51.080Z,30.91
2018-07-04T14:46:29.960Z,30.66
2018-07-04T14:49:09.306Z,30.56
2018-07-04T14:51:48.641Z,30.47
2018-07-04T14:54:27.760Z,30.35
2018-07-04T14:57:06.940Z,30.10
2018-07-04T14:59:47.445Z,29.95
2018-07-04T15:02:26.507Z,29.82
2018-07-04T15:05:05.714Z,29.64
2018-07-04T15:07:44.748Z,29.46
2018-07-04T15:10:23.843Z,29.53
2018-07-04T15:13:02.835Z,29.44
2018-07-04T15:15:41.859Z,29.44
2018-07-04T15:18:20.828Z,29.28
2018-07-04T15:21:00.181Z,29.18
2018-07-04T15:23:39.335Z,29.06
2018-07-04T15:26:18.446Z,28.97
2018-07-04T15:28:57.778Z,28.81
2018-07-04T15:31:36.909Z,28.58
2018-07-04T15:34:16.040Z,28.42
2018-07-04T15:36:55.032Z,28.25
2018-07-04T15:39:34.100Z,28.25
2018-07-04T15:42:13.449Z,28.02
2018-07-04T15:44:52.557Z,27.92
2018-07-04T15:47:31.618Z,27.90
2018-07-04T15:50:10.532Z,27.88
2018-07-04T15:52:49.686Z,27.85
2018-07-04T15:55:28.861Z,27.80
2018-07-04T15:58:08.418Z,27.80
2018-07-04T16:00:47.277Z,27.83
2018-07-04T16:03:26.250Z,27.68
2018-07-04T16:06:05.297Z,27.48
2018-07-04T16:08:44.652Z,27.26
2018-07-04T16:11:23.566Z,27.08
2018-07-04T16:14:02.605Z,27.02
2018-07-04T16:16:41.696Z,26.98
2018-07-04T16:19:20.768Z,26.96
2018-07-04T16:22:00.176Z,26.82
2018-07-04T16:24:39.205Z,26.74
2018-07-04T16:27:18.318Z,26.73
2018-07-04T16:29:57.413Z,26.75
2018-07-04T16:32:36.436Z,26.76
2018-07-04T16:35:15.567Z,26.89
2018-07-04T16:37:54.494Z,26.88
2018-07-04T16:40:33.517Z,26.81
2018-07-04T16:43:12.534Z,26.77
2018-07-04T16:45:52.150Z,26.64
2018-07-04T16:48:31.360Z,26.58
2018-07-04T16:51:10.578Z,26.44
2018-07-04T16:53:49.668Z,26.36
2018-07-04T16:56:28.853Z,26.23
2018-07-04T16:59:08.108Z,26.02
2018-07-04T17:01:47.124Z,26.04
2018-07-04T17:04:26.119Z,26.00
2018-07-04T17:07:05.147Z,26.00
2018-07-04T17:09:44.033Z,26.05
2018-07-04T17:12:23.008Z,26.12
2018-07-04T17:15:03.073Z,26.22
2018-07-04T17:17:41.966Z,26.26
2018-07-04T17:20:20.891Z,26.28
2018-07-04T17:23:00.302Z,26.20
2018-07-04T17:25:39.207Z,26.06
2018-07-04T17:28:18.681Z,25.89
2018-07-04T17:30:57.843Z,25.89
2018-07-04T17:33:37.401Z,25.86
2018-07-04T17:36:16.466Z,25.90
2018-07-04T17:38:55.588Z,25.91
2018-07-04T17:41:35.168Z,25.89
2018-07-04T17:44:14.809Z,25.81
2018-07-04T17:46:53.904Z,25.81
2018-07-04T17:49:33.161Z,25.86
2018-07-04T17:52:12.348Z,25.88
2018-07-04T17:54:51.423Z,25.81
2018-07-04T17:57:30.647Z,25.64
2018-07-04T18:00:09.690Z,25.60
2018-07-04T18:02:48.840Z,25.53
2018-07-04T18:05:27.977Z,25.40
2018-07-04T18:08:07.156Z,25.34
2018-07-04T18:10:46.262Z,25.22
2018-07-04T18:13:25.380Z,25.25
2018-07-04T18:16:06.381Z,25.06
2018-07-04T18:18:47.490Z,25.01
2018-07-04T18:21:27.026Z,24.95
2018-07-04T18:24:07.539Z,24.87
2018-07-04T18:26:47.106Z,24.83
2018-07-04T18:29:26.307Z,24.83
2018-07-04T18:32:06.287Z,24.79
2018-07-04T18:34:45.430Z,24.69
2018-07-04T18:37:24.782Z,24.74
2018-07-04T18:40:05.091Z,24.67
2018-07-04T18:42:44.872Z,24.58
2018-07-04T18:45:28.703Z,24.31
2018-07-04T18:48:09.082Z,24.13
2018-07-04T18:50:48.135Z,24.02
2018-07-04T18:53:27.503Z,23.86
2018-07-04T18:56:06.622Z,23.76
2018-07-04T18:58:45.752Z,23.54
2018-07-04T19:01:24.969Z,23.49
2018-07-04T19:04:04.119Z,23.49
2018-07-04T19:06:43.094Z,23.47
2018-07-04T19:09:22.218Z,23.46
2018-07-04T19:12:01.160Z,23.32
2018-07-04T19:14:40.656Z,23.29
2018-07-04T19:17:19.664Z,23.19
2018-07-04T19:19:58.729Z,23.01
2018-07-04T19:22:37.982Z,22.93
2018-07-04T19:25:18.436Z,22.93
2018-07-04T19:27:57.598Z,22.94
2018-07-04T19:30:36.990Z,22.90
2018-07-04T19:33:15.984Z,22.82
2018-07-04T19:35:55.148Z,22.71
2018-07-04T19:38:34.327Z,22.66
2018-07-04T19:41:13.337Z,22.46
2018-07-04T19:43:52.531Z,22.36
2018-07-04T19:46:31.788Z,22.29
2018-07-04T19:49:10.758Z,22.35
2018-07-04T19:51:50.142Z,22.37
2018-07-04T19:54:29.298Z,22.35
2018-07-04T19:57:09.030Z,22.44
2018-07-04T19:59:47.941Z,22.33
2018-07-04T20:02:27.053Z,22.36
2018-07-04T20:05:06.015Z,22.32
2018-07-04T20:07:45.213Z,22.34
2018-07-04T20:10:24.382Z,22.15
2018-07-04T20:13:03.468Z,22.08
2018-07-04T20:15:42.467Z,22.02
2018-07-04T20:18:21.485Z,21.99
2018-07-04T20:21:00.436Z,21.91
2018-07-04T20:23:39.407Z,21.83
2018-07-04T20:26:18.471Z,21.82
2018-07-04T20:28:57.497Z,21.81
2018-07-04T20:31:36.612Z,21.76
2018-07-04T20:34:15.576Z,21.70
2018-07-04T20:36:54.805Z,21.76
2018-07-04T20:39:33.814Z,21.79
2018-07-04T20:42:12.839Z,21.80
2018-07-04T20:44:52.160Z,21.88
2018-07-04T20:47:33.265Z,21.79
2018-07-04T20:50:12.470Z,21.77
2018-07-04T20:52:51.429Z,21.86
2018-07-04T20:55:30.584Z,21.83
2018-07-04T20:58:09.516Z,21.85
2018-07-04T21:00:48.613Z,21.88
2018-07-04T21:03:27.694Z,21.94
2018-07-04T21:06:06.770Z,21.96
2018-07-04T21:08:45.775Z,21.85
2018-07-04T21:11:25.122Z,21.88
2018-07-04T21:14:04.205Z,21.78
2018-07-04T21:16:43.204Z,21.88
2018-07-04T21:19:22.265Z,21.93
2018-07-04T21:22:01.396Z,21.77
2018-07-04T21:24:40.352Z,21.70
2018-07-04T21:27:19.760Z,21.63
2018-07-04T21:29:58.903Z,21.63
2018-07-04T21:32:37.969Z,21.59
2018-07-04T21:35:17.084Z,21.56
2018-07-04T21:37:56.109Z,21.51
2018-07-04T21:40:35.112Z,21.45
2018-07-04T21:43:14.348Z,21.47
2018-07-04T21:45:53.335Z,21.52
2018-07-04T21:48:33.130Z,21.67
2018-07-04T21:51:12.341Z,21.67
2018-07-04T21:53:51.562Z,21.67
2018-07-04T21:56:30.493Z,21.57
2018-07-04T21:59:09.648Z,21.50
2018-07-04T22:01:48.836Z,21.62
2018-07-04T22:04:27.990Z,21.73
2018-07-04T22:07:07.042Z,21.82
2018-07-04T22:09:46.080Z,21.88
2018-07-04T22:12:24.979Z,21.88
2018-07-04T22:15:03.953Z,21.95
2018-07-04T22:17:42.979Z,21.94
2018-07-04T22:20:24.378Z,21.91
2018-07-04T22:23:03.889Z,21.66
2018-07-04T22:25:42.930Z,21.55
2018-07-04T22:28:21.956Z,21.40
2018-07-04T22:31:01.129Z,21.40
2018-07-04T22:33:40.400Z,21.39
2018-07-04T22:36:19.358Z,21.37
2018-07-04T22:38:58.404Z,21.39
2018-07-04T22:41:37.614Z,21.39
2018-07-04T22:44:16.626Z,21.48
2018-07-04T22:46:55.747Z,21.47
2018-07-04T22:49:34.748Z,21.45
2018-07-04T22:52:13.783Z,21.44
2018-07-04T22:54:52.859Z,21.41
2018-07-04T22:57:31.856Z,21.42
2018-07-04T23:00:10.756Z,21.37
2018-07-04T23:02:49.761Z,21.39
2018-07-04T23:05:28.786Z,21.47
2018-07-04T23:08:07.825Z,21.27
2018-07-04T23:10:46.747Z,21.22
2018-07-04T23:13:25.851Z,21.21
2018-07-04T23:16:04.818Z,21.24
2018-07-04T23:18:43.911Z,21.15
2018-07-04T23:21:22.817Z,21.05
2018-07-04T23:24:01.908Z,21.01
2018-07-04T23:26:40.914Z,21.02
2018-07-04T23:29:19.848Z,21.00
2018-07-04T23:31:59.484Z,21.05
2018-07-04T23:34:38.480Z,21.02
2018-07-04T23:37:17.480Z,21.16
2018-07-04T23:39:56.402Z,21.29
2018-07-04T23:42:35.381Z,21.37
2018-07-04T23:45:14.541Z,21.34
2018-07-04T23:47:54.591Z,21.33
2018-07-04T23:50:33.587Z,21.32
2018-07-04T23:53:12.652Z,21.34
2018-07-04T23:55:51.609Z,21.36
2018-07-04T23:58:30.763Z,21.32
